Weather observations for the past three days for
Hermiston, Hermiston Municipal Airport
Metric (Imperial)
Date Time (pdt) Wind (kph) Vis. (km) Weather Sky Cond. Temperature (ºC) Relative Humidity Wind Chill (°C) Heat Index (°C) Pressure Precipitation (cm)
Air Dwpt 6 hour altimeter (cm) sea level (mb) 1 hr 3 hr 6 hr
Max. Min.
04 03:53 Calm 16.09 Fair CLR 8.3 6.7 90% 75.59 1007.5
04 02:53 SE 6 16.09 Fair CLR 8.9 6.7 86% 75.62 1007.5
04 01:53 SE 7 16.09 Fair CLR 10.6 7.2 80% 75.59 1007.4
04 00:53 Calm 16.09 Fair CLR 11.7 6.7 72% 75.62 1007.6
03 23:53 S 6 16.09 Fair CLR 13.9 6.7 62% 75.59 1007.5
03 22:53 S 11 16.09 Fair CLR 14.4 7.2 30 14.4 62% 75.59 1007.3
03 21:53 S 15 16.09 Fair CLR 16.7 8.9 60% 75.59 1007.3
03 20:53 SE 6 16.09 Fair CLR 16.1 7.2 56% 75.57 1007.1
03 19:53 E 7 16.09 Fair CLR 23.9 7.8 36% 25 75.54 1006.6
03 18:53 NE 11 16.09 Fair CLR 27.8 7.2 27% 27 75.57 1007.1
03 17:53 NE 9 16.09 Fair CLR 29.4 4.4 20% 28 75.62 1007.8
03 16:53 E 13 G 30 16.09 Fair CLR 30 3.9 30.6 22.2 19% 28 75.67 1008.3
03 15:53 NE 7 16.09 Fair CLR 30 2.8 18% 28 75.72 1008.9
03 14:53 E 15 16.09 Fair CLR 30.6 4.4 19% 29 75.77 1009.8
03 13:53 NE 17 G 26 16.09 Fair CLR 28.9 5.6 23% 27 75.84 1010.6
03 12:53 NE 11 16.09 Fair CLR 27.2 7.8 29% 27 75.9 1011.4
03 11:53 Vrbl 6 16.09 Fair CLR 25 7.8 33% 25 75.95 1012.2
03 10:53 Calm 16.09 Fair CLR 22.2 7.8 22.8 7.8 40% 76 1012.9
03 09:53 W 6 16.09 Fair CLR 21.1 8.3 44% 76.02 1013.2
03 08:53 W 9 16.09 Fair CLR 17.8 10 60% 76.05 1013.5
03 07:53 Calm 16.09 Fair CLR 14.4 9.4 72% 76.02 1013.3
03 06:53 S 6 16.09 Fair CLR 11.1 8.9 86% 76.02 1012.9
03 05:53 SE 6 16.09 Fair CLR 8.3 7.2 93% 75.97 1012.6
03 04:53 SE 9 16.09 Fair CLR 9.4 7.8 14.4 8.3 90% 8 75.97 1012.5
03 03:53 S 6 16.09 Fair CLR 8.9 6.7 86% 75.97 1012.5
03 02:53 SE 11 16.09 Fair CLR 11.1 7.8 80% 75.97 1012.3
03 01:53 Calm 16.09 Fair CLR 10 8.3 89% 75.95 1012.3
03 00:53 Calm 16.09 Fair CLR 11.1 8.9 86% 75.95 1012.1
02 23:53 S 7 16.09 Fair CLR 13.3 8.9 75% 75.92 1011.7
02 22:53 S 9 16.09 Fair CLR 14.4 8.9 29.4 13.9 70% 75.9 1011.3
02 21:53 S 9 16.09 Fair CLR 14.4 10 75% 75.87 1011.2
02 20:53 SE 7 16.09 Fair CLR 17.2 8.9 58% 75.82 1010.5
02 19:53 NE 9 16.09 Fair CLR 22.8 7.2 37% 75.74 1009.5
02 18:53 NE 9 16.09 Fair CLR 27.2 7.8 29% 27 75.74 1009.2
02 17:53 NE 9 16.09 Fair CLR 28.9 6.1 24% 27 75.77 1009.5
02 16:53 E 11 16.09 Fair CLR 28.9 3.3 28.9 21.7 19% 27 75.79 1010.0
02 15:53 Vrbl 6 16.09 Fair CLR 27.8 7.2 27% 27 75.84 1010.6
02 14:53 E 7 16.09 Fair CLR 26.7 7.8 30% 26 75.9 1011.5
02 13:53 Calm 16.09 Fair CLR 25 7.8 33% 25 75.95 1012.1
02 12:53 S 7 16.09 Fair CLR 23.9 8.9 39% 25 76 1012.7
02 11:53 NE 6 16.09 Fair CLR 23.9 8.3 37% 25 76.02 1013.3
02 10:53 NE 7 16.09 Fair CLR 22.2 8.3 22.2 8.3 41% 76.05 1013.4
02 09:53 E 6 16.09 Fair CLR 20 8.3 47% 76.05 1013.5
02 08:53 Calm 16.09 Fair CLR 17.8 8.9 56% 76.05 1013.5
02 07:53 W 6 16.09 Fair CLR 15 8.3 64% 76.02 1013.2
02 06:53 S 6 16.09 Fair CLR 11.1 9.4 89% 76 1013.0
02 05:53 S 6 16.09 Fair CLR 9.4 7.8 90% 75.97 1012.4
02 04:53 E 9 16.09 Fair CLR 10 8.3 16.7 9.4 89% 9 75.95 1012.1
02 03:53 S 7 16.09 Fair CLR 11.7 7.2 74% 75.95 1011.9
02 02:53 Calm 16.09 Fair CLR 13.3 6.7 65% 75.92 1011.7
02 01:53 E 15 16.09 Fair CLR 13.3 7.8 70% 75.92 1011.8
02 00:53 E 9 16.09 Fair CLR 13.9 8.3 69% 75.92 1011.8
01 23:53 E 11 16.09 Fair CLR 13.9 7.8 67% 75.92 1011.8
01 22:53 Calm 16.09 Fair CLR 16.7 7.8 27.8 13.9 56% 75.92 1011.7
01 21:53 SE 7 16.09 Fair CLR 16.1 8.3 60% 75.9 1011.6
01 20:53 E 17 16.09 Fair CLR 18.3 8.3 52% 75.9 1011.3
01 19:53 NE 13 16.09 Fair CLR 21.1 6.7 39% 75.87 1011.1
01 18:53 NE 13 16.09 Fair CLR 24.4 6.7 32% 25 75.87 1011.3
01 17:53 NE 15 16.09 Fair CLR 26.1 4.4 25% 26 75.92 1011.8
01 16:53 N 17 16.09 Fair CLR 27.8 3.3 28.3 20 21% 27 75.92 1012.0
01 15:53 NE 20 16.09 Fair CLR 27.8 4.4 22% 27 75.97 1012.7
01 14:53 NE 17 16.09 Fair CLR 27.2 5 24% 26 76.05 1013.5
01 13:53 N 13 16.09 Fair CLR 26.7 5 25% 26 76.12 1014.5
01 12:53 Calm 16.09 Fair CLR 24.4 5.6 30% 25 76.17 1015.3
01 11:53 N 11 16.09 Fair CLR 22.2 5 33% 76.23 1015.9
01 10:53 E 7 16.09 Fair CLR 20 5.6 20 2.8 39% 76.25 1016.5
01 09:53 Calm 16.09 Fair CLR 17.2 6.1 48% 76.3 1017.0
01 08:53 Calm 16.09 Fair CLR 14.4 6.1 58% 76.33 1017.4
01 07:53 S 7 16.09 Fair CLR 11.7 6.7 72% 76.33 1017.2
01 06:53 Calm 16.09 Fair CLR 7.2 6.1 93% 76.3 1016.9
01 05:53 Calm 16.09 Fair CLR 3.3 3.3 100% 76.25 1016.4
01 04:53 Calm 16.09 Fair CLR 5 3.9 11.1 4.4 93% 76.25 1016.5
Date Time (pdt) Wind (kph) Vis. (km) Weather Sky Cond. Air Dwpt Max. Min. Relative Humidity Wind Chill (°C) Heat Index (°C) altimeter (cm) sea level (mb) 1 hr 3 hr 6 hr
6 hour
Temperature (ºC) Pressure Precipitation (cm)